sensor_id;sensor_type;location;lat;lon;timestamp;pressure;altitude;pressure_sealevel;temperature;humidity
10470;BME280;5282;47.052;15.458;2022-10-16T00:00:37;97841.38;;;10.52;100.00
10470;BME280;5282;47.052;15.458;2022-10-16T00:03:04;97848.91;;;10.30;100.00
10470;BME280;5282;47.052;15.458;2022-10-16T00:05:31;97856.84;;;10.31;100.00
10470;BME280;5282;47.052;15.458;2022-10-16T00:08:00;97858.31;;;10.44;100.00
10470;BME280;5282;47.052;15.458;2022-10-16T00:10:28;97855.69;;;10.34;100.00
10470;BME280;5282;47.052;15.458;2022-10-16T00:12:55;97860.00;;;10.27;100.00
10470;BME280;5282;47.052;15.458;2022-10-16T00:15:22;97865.22;;;10.02;100.00
10470;BME280;5282;47.052;15.458;2022-10-16T00:17:49;97857.09;;;9.94;100.00
10470;BME280;5282;47.052;15.458;2022-10-16T00:20:16;97862.06;;;9.88;100.00
10470;BME280;5282;47.052;15.458;2022-10-16T00:22:43;97856.00;;;9.86;100.00
10470;BME280;5282;47.052;15.458;2022-10-16T00:25:11;97876.69;;;9.86;100.00
10470;BME280;5282;47.052;15.458;2022-10-16T00:27:38;97866.91;;;9.85;100.00
10470;BME280;5282;47.052;15.458;2022-10-16T00:30:06;97874.97;;;10.03;100.00
10470;BME280;5282;47.052;15.458;2022-10-16T00:32:34;97866.53;;;10.24;100.00
10470;BME280;5282;47.052;15.458;2022-10-16T00:35:00;97870.63;;;10.28;100.00
10470;BME280;5282;47.052;15.458;2022-10-16T00:37:29;97874.94;;;10.39;100.00
10470;BME280;5282;47.052;15.458;2022-10-16T00:39:58;97862.13;;;10.41;100.00
10470;BME280;5282;47.052;15.458;2022-10-16T00:42:26;97857.00;;;10.30;100.00
10470;BME280;5282;47.052;15.458;2022-10-16T00:44:55;97865.88;;;10.40;100.00
10470;BME280;5282;47.052;15.458;2022-10-16T00:47:26;97873.28;;;10.46;100.00
10470;BME280;5282;47.052;15.458;2022-10-16T00:49:58;97873.34;;;10.55;100.00
10470;BME280;5282;47.052;15.458;2022-10-16T00:52:25;97874.34;;;10.54;100.00
10470;BME280;5282;47.052;15.458;2022-10-16T00:54:53;97875.50;;;10.51;100.00
10470;BME280;5282;47.052;15.458;2022-10-16T00:57:21;97877.69;;;10.47;100.00
10470;BME280;5282;47.052;15.458;2022-10-16T00:59:51;97877.47;;;10.41;100.00
10470;BME280;5282;47.052;15.458;2022-10-16T01:02:18;97873.97;;;10.48;100.00
10470;BME280;5282;47.052;15.458;2022-10-16T01:04:54;97880.06;;;10.51;100.00
10470;BME280;5282;47.052;15.458;2022-10-16T01:07:32;97872.63;;;10.53;100.00
10470;BME280;5282;47.052;15.458;2022-10-16T01:10:09;97873.97;;;10.48;100.00
10470;BME280;5282;47.052;15.458;2022-10-16T01:12:47;97877.53;;;10.31;100.00
10470;BME280;5282;47.052;15.458;2022-10-16T01:15:25;97879.38;;;10.30;100.00
10470;BME280;5282;47.052;15.458;2022-10-16T01:17:57;97884.38;;;10.43;100.00
10470;BME280;5282;47.052;15.458;2022-10-16T01:20:29;97877.97;;;10.44;100.00
10470;BME280;5282;47.052;15.458;2022-10-16T01:23:04;97869.91;;;10.44;100.00
10470;BME280;5282;47.052;15.458;2022-10-16T01:25:44;97870.06;;;10.43;100.00
10470;BME280;5282;47.052;15.458;2022-10-16T01:28:19;97867.88;;;10.38;100.00
10470;BME280;5282;47.052;15.458;2022-10-16T01:30:50;97875.09;;;10.19;100.00
10470;BME280;5282;47.052;15.458;2022-10-16T01:33:21;97869.13;;;10.08;100.00
10470;BME280;5282;47.052;15.458;2022-10-16T01:35:53;97877.03;;;10.09;100.00
10470;BME280;5282;47.052;15.458;2022-10-16T01:38:24;97879.09;;;10.15;100.00
10470;BME280;5282;47.052;15.458;2022-10-16T01:40:59;97865.53;;;10.25;100.00
10470;BME280;5282;47.052;15.458;2022-10-16T01:43:33;97876.16;;;10.27;100.00
10470;BME280;5282;47.052;15.458;2022-10-16T01:46:02;97879.19;;;10.06;100.00
10470;BME280;5282;47.052;15.458;2022-10-16T01:48:30;97878.25;;;10.15;100.00
10470;BME280;5282;47.052;15.458;2022-10-16T01:51:03;97880.69;;;10.26;100.00
10470;BME280;5282;47.052;15.458;2022-10-16T01:53:32;97875.81;;;10.30;100.00
10470;BME280;5282;47.052;15.458;2022-10-16T01:56:00;97874.16;;;10.29;100.00
10470;BME280;5282;47.052;15.458;2022-10-16T01:58:33;97869.63;;;10.29;100.00
10470;BME280;5282;47.052;15.458;2022-10-16T02:01:02;97861.22;;;10.32;100.00
10470;BME280;5282;47.052;15.458;2022-10-16T02:03:32;97859.31;;;10.25;100.00
10470;BME280;5282;47.052;15.458;2022-10-16T02:06:00;97860.00;;;10.27;100.00
10470;BME280;5282;47.052;15.458;2022-10-16T02:08:28;97862.31;;;10.22;100.00
10470;BME280;5282;47.052;15.458;2022-10-16T02:10:57;97863.09;;;10.14;100.00
10470;BME280;5282;47.052;15.458;2022-10-16T02:13:29;97865.56;;;10.07;100.00
10470;BME280;5282;47.052;15.458;2022-10-16T02:15:59;97872.66;;;10.08;100.00
10470;BME280;5282;47.052;15.458;2022-10-16T02:18:29;97868.56;;;10.22;100.00
10470;BME280;5282;47.052;15.458;2022-10-16T02:20:59;97863.00;;;10.24;100.00
10470;BME280;5282;47.052;15.458;2022-10-16T02:23:35;97877.84;;;10.28;100.00
10470;BME280;5282;47.052;15.458;2022-10-16T02:26:07;97877.53;;;10.31;100.00
10470;BME280;5282;47.052;15.458;2022-10-16T02:28:38;97870.63;;;10.28;100.00
10470;BME280;5282;47.052;15.458;2022-10-16T02:31:11;97882.25;;;10.29;100.00
10470;BME280;5282;47.052;15.458;2022-10-16T02:33:41;97882.38;;;10.27;100.00
10470;BME280;5282;47.052;15.458;2022-10-16T02:36:10;97881.53;;;10.27;100.00
10470;BME280;5282;47.052;15.458;2022-10-16T02:38:39;97888.28;;;10.31;100.00
10470;BME280;5282;47.052;15.458;2022-10-16T02:41:06;97886.59;;;10.30;100.00
10470;BME280;5282;47.052;15.458;2022-10-16T02:43:33;97892.91;;;10.21;100.00
10470;BME280;5282;47.052;15.458;2022-10-16T02:46:00;97891.38;;;10.36;100.00
10470;BME280;5282;47.052;15.458;2022-10-16T02:48:28;97898.91;;;10.32;100.00
10470;BME280;5282;47.052;15.458;2022-10-16T02:50:55;97896.75;;;10.36;100.00
10470;BME280;5282;47.052;15.458;2022-10-16T02:53:23;97895.06;;;10.35;100.00
10470;BME280;5282;47.052;15.458;2022-10-16T02:55:50;97889.16;;;10.31;100.00
10470;BME280;5282;47.052;15.458;2022-10-16T02:58:16;97900.53;;;10.25;100.00
10470;BME280;5282;47.052;15.458;2022-10-16T03:00:43;97896.00;;;10.26;100.00
10470;BME280;5282;47.052;15.458;2022-10-16T03:03:10;97899.69;;;10.25;100.00
10470;BME280;5282;47.052;15.458;2022-10-16T03:05:38;97921.25;;;10.07;100.00
10470;BME280;5282;47.052;15.458;2022-10-16T03:08:05;97921.31;;;9.97;100.00
10470;BME280;5282;47.052;15.458;2022-10-16T03:10:32;97921.78;;;9.92;100.00
10470;BME280;5282;47.052;15.458;2022-10-16T03:12:59;97922.88;;;9.99;100.00
10470;BME280;5282;47.052;15.458;2022-10-16T03:15:25;97921.94;;;10.09;100.00
10470;BME280;5282;47.052;15.458;2022-10-16T03:17:53;97919.47;;;10.15;100.00
10470;BME280;5282;47.052;15.458;2022-10-16T03:20:20;97914.56;;;9.93;100.00
10470;BME280;5282;47.052;15.458;2022-10-16T03:22:48;97910.53;;;9.97;100.00
10470;BME280;5282;47.052;15.458;2022-10-16T03:25:15;97912.34;;;10.06;100.00
10470;BME280;5282;47.052;15.458;2022-10-16T03:27:44;97913.88;;;9.91;100.00
10470;BME280;5282;47.052;15.458;2022-10-16T03:30:12;97907.25;;;10.03;100.00
10470;BME280;5282;47.052;15.458;2022-10-16T03:32:38;97898.72;;;9.90;100.00
10470;BME280;5282;47.052;15.458;2022-10-16T03:35:06;97910.47;;;9.88;100.00
10470;BME280;5282;47.052;15.458;2022-10-16T03:37:33;97910.47;;;9.88;100.00
10470;BME280;5282;47.052;15.458;2022-10-16T03:40:01;97907.44;;;9.83;100.00
10470;BME280;5282;47.052;15.458;2022-10-16T03:42:28;97914.84;;;9.71;100.00
10470;BME280;5282;47.052;15.458;2022-10-16T03:44:55;97923.31;;;9.77;100.00
10470;BME280;5282;47.052;15.458;2022-10-16T03:47:22;97919.84;;;9.84;100.00
10470;BME280;5282;47.052;15.458;2022-10-16T03:49:49;97928.69;;;9.77;100.00
10470;BME280;5282;47.052;15.458;2022-10-16T03:52:16;97928.84;;;9.75;100.00
10470;BME280;5282;47.052;15.458;2022-10-16T03:54:43;97937.44;;;9.79;100.00
10470;BME280;5282;47.052;15.458;2022-10-16T03:57:11;97934.38;;;9.92;100.00
10470;BME280;5282;47.052;15.458;2022-10-16T03:59:38;97932.16;;;10.05;100.00
10470;BME280;5282;47.052;15.458;2022-10-16T04:02:05;97936.09;;;10.11;100.00
10470;BME280;5282;47.052;15.458;2022-10-16T04:04:32;97938.59;;;10.12;100.00
10470;BME280;5282;47.052;15.458;2022-10-16T04:06:58;97930.22;;;10.15;100.00
10470;BME280;5282;47.052;15.458;2022-10-16T04:09:25;97929.22;;;10.16;100.00
10470;BME280;5282;47.052;15.458;2022-10-16T04:11:52;97923.53;;;10.19;100.00
10470;BME280;5282;47.052;15.458;2022-10-16T04:14:20;97929.75;;;10.20;100.00
10470;BME280;5282;47.052;15.458;2022-10-16T04:16:47;97924.16;;;10.13;100.00
10470;BME280;5282;47.052;15.458;2022-10-16T04:19:14;97937.31;;;10.16;100.00
10470;BME280;5282;47.052;15.458;2022-10-16T04:21:43;97927.06;;;10.20;100.00
10470;BME280;5282;47.052;15.458;2022-10-16T04:24:10;97933.63;;;10.17;100.00
10470;BME280;5282;47.052;15.458;2022-10-16T04:26:38;97933.06;;;10.14;100.00
10470;BME280;5282;47.052;15.458;2022-10-16T04:29:07;97930.38;;;10.14;100.00
10470;BME280;5282;47.052;15.458;2022-10-16T04:31:35;97924.75;;;10.07;100.00
10470;BME280;5282;47.052;15.458;2022-10-16T04:34:01;97928.66;;;10.13;100.00
10470;BME280;5282;47.052;15.458;2022-10-16T04:36:28;97932.22;;;10.13;100.00
10470;BME280;5282;47.052;15.458;2022-10-16T04:38:55;97925.69;;;10.16;100.00
10470;BME280;5282;47.052;15.458;2022-10-16T04:41:24;97935.44;;;10.17;100.00
10470;BME280;5282;47.052;15.458;2022-10-16T04:43:51;97938.59;;;10.12;100.00
10470;BME280;5282;47.052;15.458;2022-10-16T04:46:18;97939.91;;;10.08;100.00
10470;BME280;5282;47.052;15.458;2022-10-16T04:48:46;97938.59;;;10.12;100.00
10470;BME280;5282;47.052;15.458;2022-10-16T04:51:13;97944.81;;;10.13;100.00
10470;BME280;5282;47.052;15.458;2022-10-16T04:53:40;97946.38;;;10.15;100.00
10470;BME280;5282;47.052;15.458;2022-10-16T04:56:07;97950.59;;;10.18;100.00
10470;BME280;5282;47.052;15.458;2022-10-16T04:58:33;97951.41;;;10.18;100.00
10470;BME280;5282;47.052;15.458;2022-10-16T05:01:00;97956.13;;;10.16;100.00
10470;BME280;5282;47.052;15.458;2022-10-16T05:03:27;97959.50;;;10.18;100.00
10470;BME280;5282;47.052;15.458;2022-10-16T05:05:55;97962.88;;;10.21;100.00
10470;BME280;5282;47.052;15.458;2022-10-16T05:08:23;97976.56;;;10.09;100.00
10470;BME280;5282;47.052;15.458;2022-10-16T05:10:49;97972.19;;;10.08;100.00
10470;BME280;5282;47.052;15.458;2022-10-16T05:13:17;97973.66;;;10.02;100.00
10470;BME280;5282;47.052;15.458;2022-10-16T05:15:46;97986.44;;;10.00;100.00
10470;BME280;5282;47.052;15.458;2022-10-16T05:18:13;97984.41;;;10.02;100.00
10470;BME280;5282;47.052;15.458;2022-10-16T05:20:40;97978.91;;;10.04;100.00
10470;BME280;5282;47.052;15.458;2022-10-16T05:23:09;97983.66;;;10.10;100.00
10470;BME280;5282;47.052;15.458;2022-10-16T05:25:37;97989.72;;;10.12;100.00
10470;BME280;5282;47.052;15.458;2022-10-16T05:28:04;97990.66;;;10.03;100.00
10470;BME280;5282;47.052;15.458;2022-10-16T05:30:31;98001.94;;;9.88;100.00
10470;BME280;5282;47.052;15.458;2022-10-16T05:32:58;98011.59;;;9.81;100.00
10470;BME280;5282;47.052;15.458;2022-10-16T05:35:24;98017.91;;;9.90;100.00
10470;BME280;5282;47.052;15.458;2022-10-16T05:37:52;98014.84;;;10.03;100.00
10470;BME280;5282;47.052;15.458;2022-10-16T05:40:20;98010.19;;;10.05;100.00
10470;BME280;5282;47.052;15.458;2022-10-16T05:42:47;98002.34;;;10.12;100.00
10470;BME280;5282;47.052;15.458;2022-10-16T05:45:14;98007.56;;;10.13;100.00
10470;BME280;5282;47.052;15.458;2022-10-16T05:47:41;98006.56;;;10.14;100.00
10470;BME280;5282;47.052;15.458;2022-10-16T05:50:08;97997.50;;;10.15;100.00
10470;BME280;5282;47.052;15.458;2022-10-16T05:52:35;98001.88;;;10.16;100.00
10470;BME280;5282;47.052;15.458;2022-10-16T05:55:02;98001.56;;;10.19;100.00
10470;BME280;5282;47.052;15.458;2022-10-16T05:57:31;98009.72;;;10.10;100.00
10470;BME280;5282;47.052;15.458;2022-10-16T05:59:58;98022.72;;;10.14;100.00
10470;BME280;5282;47.052;15.458;2022-10-16T06:02:24;98021.38;;;10.18;100.00
10470;BME280;5282;47.052;15.458;2022-10-16T06:04:51;98027.63;;;10.19;100.00
10470;BME280;5282;47.052;15.458;2022-10-16T06:07:19;98030.03;;;10.22;100.00
10470;BME280;5282;47.052;15.458;2022-10-16T06:09:48;98038.09;;;10.22;100.00
10470;BME280;5282;47.052;15.458;2022-10-16T06:12:15;98053.09;;;9.97;100.00
10470;BME280;5282;47.052;15.458;2022-10-16T06:14:44;98065.88;;;9.95;100.00
10470;BME280;5282;47.052;15.458;2022-10-16T06:17:12;98072.06;;;9.77;100.00
10470;BME280;5282;47.052;15.458;2022-10-16T06:19:39;98076.03;;;10.01;100.00
10470;BME280;5282;47.052;15.458;2022-10-16T06:22:06;98076.00;;;10.11;100.00
10470;BME280;5282;47.052;15.458;2022-10-16T06:24:33;98066.06;;;10.11;100.00
10470;BME280;5282;47.052;15.458;2022-10-16T06:27:00;98078.09;;;9.89;100.00
10470;BME280;5282;47.052;15.458;2022-10-16T06:29:27;98079.53;;;9.83;100.00
10470;BME280;5282;47.052;15.458;2022-10-16T06:31:55;98083.03;;;9.94;100.00
10470;BME280;5282;47.052;15.458;2022-10-16T06:34:22;98084.25;;;9.99;100.00
10470;BME280;5282;47.052;15.458;2022-10-16T06:36:49;98091.63;;;9.97;100.00
10470;BME280;5282;47.052;15.458;2022-10-16T06:39:16;98096.03;;;9.98;100.00
10470;BME280;5282;47.052;15.458;2022-10-16T06:41:42;98092.78;;;10.13;100.00
10470;BME280;5282;47.052;15.458;2022-10-16T06:44:09;98110.19;;;10.18;100.00
10470;BME280;5282;47.052;15.458;2022-10-16T06:46:36;98110.50;;;10.15;100.00
10470;BME280;5282;47.052;15.458;2022-10-16T06:49:04;98104.72;;;10.10;100.00
10470;BME280;5282;47.052;15.458;2022-10-16T06:51:31;98108.53;;;10.17;100.00
10470;BME280;5282;47.052;15.458;2022-10-16T06:54:00;98117.25;;;10.19;100.00
10470;BME280;5282;47.052;15.458;2022-10-16T06:56:28;98118.38;;;10.27;100.00
10470;BME280;5282;47.052;15.458;2022-10-16T06:58:55;98120.00;;;10.38;100.00
10470;BME280;5282;47.052;15.458;2022-10-16T07:01:24;98104.28;;;10.33;100.00
10470;BME280;5282;47.052;15.458;2022-10-16T07:03:51;98106.19;;;10.51;100.00
10470;BME280;5282;47.052;15.458;2022-10-16T07:06:21;98099.03;;;10.59;100.00
10470;BME280;5282;47.052;15.458;2022-10-16T07:08:49;98101.28;;;10.64;100.00
10470;BME280;5282;47.052;15.458;2022-10-16T07:11:17;98103.88;;;10.74;100.00
10470;BME280;5282;47.052;15.458;2022-10-16T07:13:45;98098.88;;;10.79;100.00
10470;BME280;5282;47.052;15.458;2022-10-16T07:16:14;98093.03;;;10.84;100.00
10470;BME280;5282;47.052;15.458;2022-10-16T07:18:43;98097.56;;;10.83;100.00
10470;BME280;5282;47.052;15.458;2022-10-16T07:21:13;98095.41;;;10.87;100.00
10470;BME280;5282;47.052;15.458;2022-10-16T07:23:42;98094.09;;;10.91;100.00
10470;BME280;5282;47.052;15.458;2022-10-16T07:26:10;98100.75;;;11.05;100.00
10470;BME280;5282;47.052;15.458;2022-10-16T07:28:37;98106.16;;;11.05;100.00
10470;BME280;5282;47.052;15.458;2022-10-16T07:31:06;98107.84;;;11.06;100.00
10470;BME280;5282;47.052;15.458;2022-10-16T07:33:37;98113.34;;;10.96;100.00
10470;BME280;5282;47.052;15.458;2022-10-16T07:36:04;98113.63;;;10.93;100.00
10470;BME280;5282;47.052;15.458;2022-10-16T07:38:32;98115.16;;;10.95;100.00
10470;BME280;5282;47.052;15.458;2022-10-16T07:41:02;98109.44;;;11.17;100.00
10470;BME280;5282;47.052;15.458;2022-10-16T07:43:30;98113.59;;;11.29;100.00
10470;BME280;5282;47.052;15.458;2022-10-16T07:45:57;98124.72;;;11.34;100.00
10470;BME280;5282;47.052;15.458;2022-10-16T07:48:29;98116.59;;;11.26;100.00
10470;BME280;5282;47.052;15.458;2022-10-16T07:50:57;98122.44;;;11.21;100.00
10470;BME280;5282;47.052;15.458;2022-10-16T07:53:25;98116.72;;;11.42;100.00
10470;BME280;5282;47.052;15.458;2022-10-16T07:55:52;98105.31;;;11.57;100.00
10470;BME280;5282;47.052;15.458;2022-10-16T07:58:20;98105.41;;;11.73;100.00
10470;BME280;5282;47.052;15.458;2022-10-16T08:00:49;98102.44;;;11.85;100.00
10470;BME280;5282;47.052;15.458;2022-10-16T08:03:16;98107.50;;;11.88;100.00
10470;BME280;5282;47.052;15.458;2022-10-16T08:05:43;98108.31;;;11.80;100.00
10470;BME280;5282;47.052;15.458;2022-10-16T08:08:13;98109.34;;;11.87;100.00
10470;BME280;5282;47.052;15.458;2022-10-16T08:10:40;98102.44;;;11.93;100.00
10470;BME280;5282;47.052;15.458;2022-10-16T08:13:07;98113.28;;;11.67;100.00
10470;BME280;5282;47.052;15.458;2022-10-16T08:15:36;98121.91;;;11.70;100.00
10470;BME280;5282;47.052;15.458;2022-10-16T08:18:04;98120.81;;;11.89;100.00
10470;BME280;5282;47.052;15.458;2022-10-16T08:20:32;98120.41;;;11.76;100.00
10470;BME280;5282;47.052;15.458;2022-10-16T08:23:00;98120.28;;;12.12;100.00
10470;BME280;5282;47.052;15.458;2022-10-16T08:25:27;98120.34;;;12.29;100.00
10470;BME280;5282;47.052;15.458;2022-10-16T08:27:55;98118.16;;;12.41;100.00
10470;BME280;5282;47.052;15.458;2022-10-16T08:30:23;98117.16;;;12.50;100.00
10470;BME280;5282;47.052;15.458;2022-10-16T08:32:52;98111.44;;;12.61;100.00
10470;BME280;5282;47.052;15.458;2022-10-16T08:35:19;98115.00;;;12.78;100.00
10470;BME280;5282;47.052;15.458;2022-10-16T08:37:46;98110.13;;;12.90;100.00
10470;BME280;5282;47.052;15.458;2022-10-16T08:40:18;98111.16;;;12.98;100.00
10470;BME280;5282;47.052;15.458;2022-10-16T08:42:56;98112.84;;;12.99;100.00
10470;BME280;5282;47.052;15.458;2022-10-16T08:45:35;98117.22;;;13.08;100.00
10470;BME280;5282;47.052;15.458;2022-10-16T08:48:14;98121.97;;;13.22;100.00
10470;BME280;5282;47.052;15.458;2022-10-16T08:50:44;98117.91;;;13.43;100.00
10470;BME280;5282;47.052;15.458;2022-10-16T08:53:16;98111.78;;;13.57;100.00
10470;BME280;5282;47.052;15.458;2022-10-16T08:55:50;98121.09;;;13.63;100.00
10470;BME280;5282;47.052;15.458;2022-10-16T08:58:18;98119.22;;;13.64;100.00
10470;BME280;5282;47.052;15.458;2022-10-16T09:00:47;98117.97;;;13.83;100.00
10470;BME280;5282;47.052;15.458;2022-10-16T09:03:26;98116.03;;;14.08;100.00
10470;BME280;5282;47.052;15.458;2022-10-16T09:06:13;98117.84;;;14.16;100.00
10470;BME280;5282;47.052;15.458;2022-10-16T09:08:50;98113.44;;;14.23;100.00
10470;BME280;5282;47.052;15.458;2022-10-16T09:11:24;98116.13;;;14.55;100.00
10470;BME280;5282;47.052;15.458;2022-10-16T09:14:03;98114.13;;;14.80;100.00
10470;BME280;5282;47.052;15.458;2022-10-16T09:16:36;98107.38;;;14.99;100.00
10470;BME280;5282;47.052;15.458;2022-10-16T09:19:13;98102.63;;;15.01;100.00
10470;BME280;5282;47.052;15.458;2022-10-16T09:21:45;98101.38;;;15.27;100.00
10470;BME280;5282;47.052;15.458;2022-10-16T09:24:14;98099.06;;;15.54;100.00
10470;BME280;5282;47.052;15.458;2022-10-16T09:26:42;98102.34;;;15.79;100.00
10470;BME280;5282;47.052;15.458;2022-10-16T09:29:11;98094.31;;;16.01;100.00
10470;BME280;5282;47.052;15.458;2022-10-16T09:31:39;98113.34;;;16.16;100.00
10470;BME280;5282;47.052;15.458;2022-10-16T09:34:24;98109.16;;;16.35;100.00
10470;BME280;5282;47.052;15.458;2022-10-16T09:36:56;98108.38;;;16.56;100.00
10470;BME280;5282;47.052;15.458;2022-10-16T09:39:26;98113.09;;;16.69;100.00
10470;BME280;5282;47.052;15.458;2022-10-16T09:41:54;98109.47;;;16.84;100.00
10470;BME280;5282;47.052;15.458;2022-10-16T09:44:24;98107.22;;;17.09;100.00
10470;BME280;5282;47.052;15.458;2022-10-16T09:47:01;98108.28;;;17.30;100.00
10470;BME280;5282;47.052;15.458;2022-10-16T09:49:30;98111.34;;;17.48;100.00
10470;BME280;5282;47.052;15.458;2022-10-16T09:52:04;98108.94;;;17.67;100.00
10470;BME280;5282;47.052;15.458;2022-10-16T09:54:32;98109.75;;;17.61;100.00
10470;BME280;5282;47.052;15.458;2022-10-16T09:57:05;98113.34;;;17.68;100.00
10470;BME280;5282;47.052;15.458;2022-10-16T09:59:32;98106.94;;;18.11;100.00
10470;BME280;5282;47.052;15.458;2022-10-16T10:02:03;98108.06;;;18.30;100.00
10470;BME280;5282;47.052;15.458;2022-10-16T10:04:40;98103.75;;;18.56;100.00
10470;BME280;5282;47.052;15.458;2022-10-16T10:07:17;98105.91;;;18.74;100.00
10470;BME280;5282;47.052;15.458;2022-10-16T10:09:45;98108.03;;;18.92;100.00
10470;BME280;5282;47.052;15.458;2022-10-16T10:12:18;98111.84;;;19.11;100.00
10470;BME280;5282;47.052;15.458;2022-10-16T10:14:47;98104.53;;;19.32;100.00
10470;BME280;5282;47.052;15.458;2022-10-16T10:17:16;98112.28;;;19.35;100.00
10470;BME280;5282;47.052;15.458;2022-10-16T10:19:48;98112.91;;;19.57;100.00
10470;BME280;5282;47.052;15.458;2022-10-16T10:22:23;98110.34;;;19.76;100.00
10470;BME280;5282;47.052;15.458;2022-10-16T10:24:59;98105.91;;;20.08;100.00
10470;BME280;5282;47.052;15.458;2022-10-16T10:27:34;98111.50;;;20.27;100.00
10470;BME280;5282;47.052;15.458;2022-10-16T10:30:10;98096.97;;;20.40;100.00
10470;BME280;5282;47.052;15.458;2022-10-16T10:32:51;98093.44;;;20.19;100.00
10470;BME280;5282;47.052;15.458;2022-10-16T10:35:28;98098.31;;;20.62;100.00
10470;BME280;5282;47.052;15.458;2022-10-16T10:38:16;98087.00;;;20.52;100.00
10470;BME280;5282;47.052;15.458;2022-10-16T10:40:51;98092.81;;;20.76;100.00
10470;BME280;5282;47.052;15.458;2022-10-16T10:43:32;98083.81;;;21.26;100.00
10470;BME280;5282;47.052;15.458;2022-10-16T10:46:10;98090.56;;;21.23;95.68
10470;BME280;5282;47.052;15.458;2022-10-16T10:48:54;98093.84;;;21.32;93.83
10470;BME280;5282;47.052;15.458;2022-10-16T10:51:30;98090.03;;;21.58;92.51
10470;BME280;5282;47.052;15.458;2022-10-16T10:54:07;98094.47;;;21.34;86.36
10470;BME280;5282;47.052;15.458;2022-10-16T10:56:44;98094.75;;;21.51;87.71
10470;BME280;5282;47.052;15.458;2022-10-16T11:02:18;98096.88;;;21.75;87.15
10470;BME280;5282;47.052;15.458;2022-10-16T11:05:02;98097.16;;;21.66;86.54
10470;BME280;5282;47.052;15.458;2022-10-16T11:07:42;98095.13;;;21.80;85.99
10470;BME280;5282;47.052;15.458;2022-10-16T11:10:14;98101.09;;;21.96;82.02
10470;BME280;5282;47.052;15.458;2022-10-16T11:12:46;98086.16;;;22.10;82.08
10470;BME280;5282;47.052;15.458;2022-10-16T11:15:18;98087.78;;;22.18;76.68
10470;BME280;5282;47.052;15.458;2022-10-16T11:17:50;98081.66;;;22.34;76.94
10470;BME280;5282;47.052;15.458;2022-10-16T11:20:22;98080.56;;;22.35;77.02
10470;BME280;5282;47.052;15.458;2022-10-16T11:22:54;98081.31;;;22.12;72.77
10470;BME280;5282;47.052;15.458;2022-10-16T11:25:25;98073.59;;;21.84;77.56
10470;BME280;5282;47.052;15.458;2022-10-16T11:27:58;98082.88;;;22.01;79.59
10470;BME280;5282;47.052;15.458;2022-10-16T11:30:29;98079.91;;;22.22;77.36
10470;BME280;5282;47.052;15.458;2022-10-16T11:33:04;98084.94;;;22.43;78.49
10470;BME280;5282;47.052;15.458;2022-10-16T11:35:45;98082.03;;;22.57;72.72
10470;BME280;5282;47.052;15.458;2022-10-16T11:38:20;98083.44;;;22.47;76.81
10470;BME280;5282;47.052;15.458;2022-10-16T11:40:52;98077.44;;;22.50;71.56
10470;BME280;5282;47.052;15.458;2022-10-16T11:43:26;98081.06;;;22.51;69.42
10470;BME280;5282;47.052;15.458;2022-10-16T11:45:59;98070.44;;;22.55;74.56
10470;BME280;5282;47.052;15.458;2022-10-16T11:48:35;98078.44;;;22.56;70.81
10470;BME280;5282;47.052;15.458;2022-10-16T11:51:09;98074.34;;;22.47;73.99
10470;BME280;5282;47.052;15.458;2022-10-16T11:53:46;98075.00;;;22.61;69.66
10470;BME280;5282;47.052;15.458;2022-10-16T11:56:20;98077.66;;;22.00;69.10
10470;BME280;5282;47.052;15.458;2022-10-16T11:58:54;98077.09;;;22.28;73.99
10470;BME280;5282;47.052;15.458;2022-10-16T12:01:29;98072.91;;;22.44;73.93
10470;BME280;5282;47.052;15.458;2022-10-16T12:04:14;98074.22;;;22.42;73.77
10470;BME280;5282;47.052;15.458;2022-10-16T12:06:47;98073.97;;;22.43;72.99
10470;BME280;5282;47.052;15.458;2022-10-16T12:09:20;98074.88;;;22.37;73.28
10470;BME280;5282;47.052;15.458;2022-10-16T12:11:49;98073.38;;;22.23;66.65
10470;BME280;5282;47.052;15.458;2022-10-16T12:14:22;98070.63;;;22.04;70.83
10470;BME280;5282;47.052;15.458;2022-10-16T12:17:01;98063.16;;;21.93;73.76
10470;BME280;5282;47.052;15.458;2022-10-16T12:19:31;98071.47;;;22.04;74.44
10470;BME280;5282;47.052;15.458;2022-10-16T12:22:00;98067.66;;;22.06;76.37
10470;BME280;5282;47.052;15.458;2022-10-16T12:24:36;98074.97;;;22.12;74.55
10470;BME280;5282;47.052;15.458;2022-10-16T12:27:06;98071.84;;;22.08;78.46
10470;BME280;5282;47.052;15.458;2022-10-16T12:29:45;98069.78;;;22.03;80.15
10470;BME280;5282;47.052;15.458;2022-10-16T12:32:28;98069.25;;;21.95;84.01
10470;BME280;5282;47.052;15.458;2022-10-16T12:34:56;98063.94;;;22.00;85.74
10470;BME280;5282;47.052;15.458;2022-10-16T12:37:28;98062.66;;;21.84;86.81
10470;BME280;5282;47.052;15.458;2022-10-16T12:40:11;98067.28;;;22.02;87.21
10470;BME280;5282;47.052;15.458;2022-10-16T12:42:39;98072.78;;;22.02;86.26
10470;BME280;5282;47.052;15.458;2022-10-16T12:45:24;98068.03;;;21.72;85.46
10470;BME280;5282;47.052;15.458;2022-10-16T12:47:53;98075.88;;;21.87;87.91
10470;BME280;5282;47.052;15.458;2022-10-16T12:50:31;98077.28;;;21.96;87.70
10470;BME280;5282;47.052;15.458;2022-10-16T12:52:59;98074.13;;;21.93;85.24
10470;BME280;5282;47.052;15.458;2022-10-16T12:55:35;98070.47;;;21.80;85.15
10470;BME280;5282;47.052;15.458;2022-10-16T12:58:23;98074.28;;;21.79;87.44
10470;BME280;5282;47.052;15.458;2022-10-16T13:00:56;98068.19;;;21.96;84.59
10470;BME280;5282;47.052;15.458;2022-10-16T13:06:34;98083.91;;;21.63;77.79
10470;BME280;5282;47.052;15.458;2022-10-16T13:09:17;98087.06;;;21.67;80.42
10470;BME280;5282;47.052;15.458;2022-10-16T13:12:00;98083.72;;;21.58;82.92
10470;BME280;5282;47.052;15.458;2022-10-16T13:14:50;98089.00;;;21.60;85.65